createdAt,value
2018-07-17T00:00:08.988Z,99.90
2018-07-17T00:02:37.596Z,99.90
2018-07-17T00:05:07.413Z,99.90
2018-07-17T00:07:35.962Z,99.90
2018-07-17T00:10:04.622Z,99.90
2018-07-17T00:12:33.169Z,99.90
2018-07-17T00:15:01.737Z,99.90
2018-07-17T00:17:30.272Z,99.90
2018-07-17T00:19:58.822Z,99.90
2018-07-17T00:22:27.370Z,99.90
2018-07-17T00:24:55.880Z,99.90
2018-07-17T00:27:24.383Z,99.90
2018-07-17T00:29:53.609Z,99.90
2018-07-17T00:32:22.118Z,99.90
2018-07-17T00:34:50.730Z,99.90
2018-07-17T00:37:19.244Z,99.90
2018-07-17T00:39:47.725Z,99.90
2018-07-17T00:42:16.281Z,99.90
2018-07-17T00:44:44.807Z,99.90
2018-07-17T00:47:13.377Z,99.90
2018-07-17T00:49:41.916Z,99.90
2018-07-17T00:52:10.469Z,99.90
2018-07-17T00:54:38.920Z,99.90
2018-07-17T00:57:07.499Z,99.90
2018-07-17T00:59:35.983Z,99.90
2018-07-17T01:02:09.951Z,99.90
2018-07-17T01:04:43.806Z,99.90
2018-07-17T01:07:17.813Z,99.90
2018-07-17T01:09:51.673Z,99.90
2018-07-17T01:12:19.405Z,99.90
2018-07-17T01:15:05.327Z,99.90
2018-07-17T01:17:35.074Z,99.90
2018-07-17T01:20:03.688Z,99.90
2018-07-17T01:22:32.253Z,99.90
2018-07-17T01:25:00.761Z,99.90
2018-07-17T01:27:29.285Z,99.90
2018-07-17T01:29:57.795Z,99.90
2018-07-17T01:32:26.321Z,99.90
2018-07-17T01:34:54.869Z,99.90
2018-07-17T01:37:23.434Z,99.90
2018-07-17T01:39:51.920Z,99.90
2018-07-17T01:42:20.442Z,99.90
2018-07-17T01:44:48.996Z,99.90
2018-07-17T01:47:17.532Z,99.90
2018-07-17T01:49:46.046Z,99.90
2018-07-17T01:52:14.637Z,99.90
2018-07-17T01:54:43.179Z,99.90
2018-07-17T01:57:11.807Z,99.90
2018-07-17T01:59:40.347Z,99.90
2018-07-17T02:02:08.827Z,99.90
2018-07-17T02:04:37.366Z,99.90
2018-07-17T02:07:05.932Z,99.90
2018-07-17T02:09:34.507Z,99.90
2018-07-17T02:12:03.060Z,99.90
2018-07-17T02:14:31.741Z,99.90
2018-07-17T02:17:00.317Z,99.90
2018-07-17T02:19:28.854Z,99.90
2018-07-17T02:21:57.408Z,99.90
2018-07-17T02:24:25.907Z,99.90
2018-07-17T02:26:54.404Z,99.90
2018-07-17T02:29:22.987Z,99.90
2018-07-17T02:31:51.729Z,99.90
2018-07-17T02:34:20.257Z,99.90
2018-07-17T02:36:48.786Z,99.90
2018-07-17T02:39:17.308Z,99.90
2018-07-17T02:41:45.877Z,99.90
2018-07-17T02:44:14.369Z,99.90
2018-07-17T02:46:42.892Z,99.90
2018-07-17T02:49:11.462Z,99.90
2018-07-17T02:51:39.985Z,99.90
2018-07-17T02:54:08.527Z,99.90
2018-07-17T02:56:37.029Z,99.90
2018-07-17T02:59:05.604Z,99.90
2018-07-17T03:01:34.123Z,99.90
2018-07-17T03:04:02.651Z,99.90
2018-07-17T03:06:31.226Z,99.90
2018-07-17T03:08:59.788Z,99.90
2018-07-17T03:11:28.295Z,99.90
2018-07-17T03:13:56.833Z,99.90
2018-07-17T03:16:25.383Z,99.90
2018-07-17T03:21:22.120Z,99.90
2018-07-17T03:23:50.594Z,99.90
2018-07-17T03:26:19.118Z,99.90
2018-07-17T03:28:47.622Z,99.90
2018-07-17T03:31:16.180Z,99.90
2018-07-17T03:33:44.665Z,99.90
2018-07-17T03:36:13.250Z,99.90
2018-07-17T03:38:41.795Z,99.90
2018-07-17T03:41:10.283Z,99.90
2018-07-17T03:43:38.804Z,99.90
2018-07-17T03:46:07.289Z,99.90
2018-07-17T03:48:35.846Z,99.90
2018-07-17T03:51:04.392Z,99.90
2018-07-17T03:53:32.934Z,99.90
2018-07-17T03:56:01.468Z,99.90
2018-07-17T03:58:29.979Z,99.90
2018-07-17T04:00:58.510Z,99.90
2018-07-17T04:03:27.029Z,99.90
2018-07-17T04:05:55.551Z,99.90
2018-07-17T04:08:24.069Z,99.90
2018-07-17T04:10:52.629Z,99.90
2018-07-17T04:13:21.198Z,99.90
2018-07-17T04:15:49.718Z,99.90
2018-07-17T04:18:18.261Z,99.90
2018-07-17T04:20:46.825Z,99.90
2018-07-17T04:23:15.357Z,99.90
2018-07-17T04:25:43.892Z,99.90
2018-07-17T04:28:12.426Z,99.90
2018-07-17T04:30:40.936Z,99.90
2018-07-17T04:33:09.462Z,99.90
2018-07-17T04:35:37.976Z,99.90
2018-07-17T04:38:06.555Z,99.90
2018-07-17T04:40:35.136Z,99.90
2018-07-17T04:43:03.789Z,99.90
2018-07-17T04:45:32.398Z,99.90
2018-07-17T04:48:00.944Z,99.90
2018-07-17T04:50:29.434Z,99.90
2018-07-17T04:52:57.978Z,99.90
2018-07-17T04:55:26.517Z,99.90
2018-07-17T04:57:55.040Z,99.90
2018-07-17T05:02:51.732Z,99.90
2018-07-17T05:05:20.301Z,99.90
2018-07-17T05:07:48.844Z,99.90
2018-07-17T05:10:17.406Z,99.90
2018-07-17T05:12:45.900Z,99.90
2018-07-17T05:15:14.425Z,99.90
2018-07-17T05:17:42.984Z,99.90
2018-07-17T05:20:11.563Z,99.90
2018-07-17T05:22:40.061Z,99.90
2018-07-17T05:25:08.976Z,99.90
2018-07-17T05:27:37.544Z,99.90
2018-07-17T05:32:34.544Z,99.90
2018-07-17T05:35:03.068Z,99.90
2018-07-17T05:37:31.630Z,99.90
2018-07-17T05:40:00.257Z,99.90
2018-07-17T05:42:28.755Z,99.90
2018-07-17T05:44:57.280Z,99.90
2018-07-17T05:47:25.801Z,99.90
2018-07-17T05:49:54.356Z,99.90
2018-07-17T05:52:22.892Z,99.90
2018-07-17T05:54:51.415Z,99.90
2018-07-17T05:57:19.941Z,99.90
2018-07-17T05:59:48.513Z,99.90
2018-07-17T06:02:17.078Z,99.90
2018-07-17T06:04:45.646Z,99.90
2018-07-17T06:07:14.206Z,99.90
2018-07-17T06:09:43.032Z,99.90
2018-07-17T06:12:11.617Z,99.90
2018-07-17T06:14:40.119Z,99.90
2018-07-17T06:17:08.629Z,99.90
2018-07-17T06:19:37.135Z,99.90
2018-07-17T06:22:05.782Z,99.90
2018-07-17T06:24:34.321Z,99.90
2018-07-17T06:27:03.239Z,99.90
2018-07-17T06:29:31.748Z,99.90
2018-07-17T06:32:00.319Z,99.90
2018-07-17T06:34:28.847Z,99.90
2018-07-17T06:36:57.367Z,99.90
2018-07-17T06:39:25.873Z,99.90
2018-07-17T06:41:54.421Z,99.90
2018-07-17T06:44:22.985Z,99.90
2018-07-17T06:46:51.950Z,99.90
2018-07-17T06:49:20.520Z,99.90
2018-07-17T06:51:49.093Z,99.90
2018-07-17T06:54:17.695Z,99.90
2018-07-17T06:56:46.275Z,99.90
2018-07-17T06:59:14.855Z,99.90
2018-07-17T07:01:43.465Z,99.90
2018-07-17T07:04:11.988Z,99.90
2018-07-17T07:09:09.901Z,99.90
2018-07-17T07:11:38.702Z,99.90
2018-07-17T07:14:07.315Z,99.90
2018-07-17T07:16:35.916Z,99.90
2018-07-17T07:19:04.488Z,99.90
2018-07-17T07:21:33.062Z,99.90
2018-07-17T07:24:01.667Z,99.90
2018-07-17T07:26:30.202Z,99.90
2018-07-17T07:28:58.798Z,99.90
2018-07-17T07:31:27.353Z,99.90
2018-07-17T07:33:55.912Z,99.90
2018-07-17T07:36:24.468Z,99.90
2018-07-17T07:38:53.010Z,99.90
2018-07-17T07:41:21.697Z,99.90
2018-07-17T07:43:50.292Z,99.90
2018-07-17T07:46:18.860Z,99.90
2018-07-17T07:48:47.373Z,99.90
2018-07-17T07:51:15.933Z,99.60
2018-07-17T07:53:44.493Z,98.80
2018-07-17T07:56:13.070Z,97.80
2018-07-17T07:58:41.625Z,98.50
2018-07-17T08:01:10.169Z,99.00
2018-07-17T08:03:38.758Z,98.70
2018-07-17T08:06:07.366Z,97.10
2018-07-17T08:08:35.925Z,98.90
2018-07-17T08:11:04.561Z,97.60
2018-07-17T08:13:33.103Z,97.20
2018-07-17T08:16:01.648Z,97.90
2018-07-17T08:18:30.210Z,95.90
2018-07-17T08:20:58.757Z,95.80
2018-07-17T08:23:27.342Z,95.00
2018-07-17T08:25:55.906Z,96.00
2018-07-17T08:28:24.471Z,93.80
2018-07-17T08:30:53.023Z,92.90
2018-07-17T08:33:21.622Z,91.80
2018-07-17T08:35:50.235Z,92.30
2018-07-17T08:38:18.976Z,93.50
2018-07-17T08:40:47.547Z,93.50
2018-07-17T08:43:16.125Z,91.50
2018-07-17T08:45:45.121Z,90.30
2018-07-17T08:48:13.658Z,90.10
2018-07-17T08:50:42.251Z,91.60
2018-07-17T08:53:10.762Z,91.50
2018-07-17T08:55:39.340Z,90.10
2018-07-17T08:58:07.851Z,90.40
2018-07-17T09:00:36.339Z,90.40
2018-07-17T09:03:04.906Z,89.50
2018-07-17T09:05:33.425Z,90.30
2018-07-17T09:08:02.001Z,91.50
2018-07-17T09:10:30.520Z,92.10
2018-07-17T09:12:59.075Z,92.00
2018-07-17T09:15:27.634Z,89.00
2018-07-17T09:17:56.197Z,87.00
2018-07-17T09:20:24.738Z,86.80
2018-07-17T09:22:53.245Z,85.30
2018-07-17T09:25:21.803Z,83.60
2018-07-17T09:27:50.454Z,81.60
2018-07-17T09:30:18.975Z,81.60
2018-07-17T09:32:47.565Z,85.60
2018-07-17T09:35:16.103Z,82.70
2018-07-17T09:37:44.693Z,84.30
2018-07-17T09:40:13.241Z,79.10
2018-07-17T09:42:41.777Z,77.80
2018-07-17T09:45:10.320Z,73.30
2018-07-17T09:47:38.842Z,74.10
2018-07-17T09:50:07.431Z,70.90
2018-07-17T09:52:35.973Z,72.20
2018-07-17T09:55:04.510Z,73.80
2018-07-17T09:57:33.101Z,77.30
2018-07-17T10:00:01.633Z,78.50
2018-07-17T10:02:31.338Z,77.50
2018-07-17T10:05:00.653Z,74.80
2018-07-17T10:07:29.214Z,70.10
2018-07-17T10:09:57.741Z,70.80
2018-07-17T10:12:26.380Z,72.30
2018-07-17T10:14:54.973Z,76.50
2018-07-17T10:17:23.572Z,76.30
2018-07-17T10:19:52.100Z,78.00
2018-07-17T10:22:20.657Z,82.00
2018-07-17T10:24:49.193Z,77.40
2018-07-17T10:27:17.750Z,76.70
2018-07-17T10:29:46.296Z,73.50
2018-07-17T10:32:14.887Z,73.50
2018-07-17T10:34:43.489Z,71.50
2018-07-17T10:37:12.034Z,73.30
2018-07-17T10:39:40.557Z,71.80
2018-07-17T10:42:09.141Z,72.50
2018-07-17T10:44:37.605Z,66.80
2018-07-17T10:47:06.751Z,68.10
2018-07-17T10:49:35.279Z,65.00
2018-07-17T10:52:03.879Z,66.10
2018-07-17T10:54:32.425Z,70.40
2018-07-17T10:57:01.014Z,74.80
2018-07-17T10:59:29.543Z,81.20
2018-07-17T11:01:58.109Z,75.40
2018-07-17T11:04:26.650Z,70.50
2018-07-17T11:06:55.155Z,71.10
2018-07-17T11:09:23.707Z,71.20
2018-07-17T11:11:52.227Z,74.40
2018-07-17T11:14:20.782Z,75.60
2018-07-17T11:16:49.378Z,74.40
2018-07-17T11:19:17.966Z,76.70
2018-07-17T11:21:46.501Z,75.70
2018-07-17T11:24:15.100Z,79.00
2018-07-17T11:26:43.665Z,78.00
2018-07-17T11:29:12.210Z,74.90
2018-07-17T11:31:40.771Z,77.20
2018-07-17T11:34:09.330Z,72.90
2018-07-17T11:36:37.839Z,75.40
2018-07-17T11:39:07.544Z,73.40
2018-07-17T11:41:36.075Z,71.70
2018-07-17T11:44:04.597Z,72.30
2018-07-17T11:46:33.151Z,74.90
2018-07-17T11:49:01.697Z,79.20
2018-07-17T11:51:30.260Z,76.70
2018-07-17T11:53:58.781Z,76.80
2018-07-17T11:56:27.331Z,79.10
2018-07-17T11:58:55.951Z,80.00
2018-07-17T12:01:24.500Z,79.70
2018-07-17T12:03:53.000Z,77.80
2018-07-17T12:06:21.609Z,77.00
2018-07-17T12:08:50.173Z,78.10
2018-07-17T12:11:18.687Z,78.20
2018-07-17T12:13:47.237Z,80.00
2018-07-17T12:16:15.786Z,79.70
2018-07-17T12:18:44.312Z,81.70
2018-07-17T12:21:12.856Z,81.80
2018-07-17T12:23:41.392Z,80.10
2018-07-17T12:26:09.996Z,79.70
2018-07-17T12:28:40.042Z,78.40
2018-07-17T12:31:08.681Z,80.40
2018-07-17T12:33:37.190Z,78.70
2018-07-17T12:36:06.051Z,76.40
2018-07-17T12:38:34.597Z,78.00
2018-07-17T12:41:03.147Z,76.50
2018-07-17T12:43:31.725Z,75.20
2018-07-17T12:46:02.503Z,72.30
2018-07-17T12:48:31.180Z,73.70
2018-07-17T12:50:59.684Z,74.10
2018-07-17T12:53:28.225Z,72.70
2018-07-17T12:55:56.752Z,74.20
2018-07-17T12:58:25.322Z,74.40
2018-07-17T13:00:53.897Z,75.50
2018-07-17T13:03:22.432Z,74.60
2018-07-17T13:05:50.931Z,73.50
2018-07-17T13:08:19.516Z,74.60
2018-07-17T13:10:48.066Z,76.00
2018-07-17T13:13:16.625Z,76.70
2018-07-17T13:15:45.233Z,76.50
2018-07-17T13:18:13.801Z,78.50
2018-07-17T13:20:42.699Z,78.00
2018-07-17T13:23:11.208Z,80.00
2018-07-17T13:25:39.803Z,79.40
2018-07-17T13:28:08.339Z,80.70
2018-07-17T13:30:36.969Z,80.60
2018-07-17T13:33:05.502Z,92.70
2018-07-17T13:35:34.171Z,96.40
2018-07-17T13:38:02.771Z,99.90
2018-07-17T13:40:31.357Z,99.90
2018-07-17T13:42:59.958Z,99.90
2018-07-17T13:45:28.495Z,99.90
2018-07-17T13:47:57.019Z,99.90
2018-07-17T13:50:25.563Z,99.90
2018-07-17T13:52:54.176Z,99.90
2018-07-17T13:55:22.806Z,99.90
2018-07-17T13:57:51.335Z,99.90
2018-07-17T14:00:19.849Z,99.90
2018-07-17T14:02:48.399Z,99.90
2018-07-17T14:05:17.049Z,99.90
2018-07-17T14:07:45.590Z,99.90
2018-07-17T14:10:14.201Z,99.90
2018-07-17T14:12:42.783Z,99.90
2018-07-17T14:15:11.048Z,99.90
2018-07-17T14:17:39.565Z,99.90
2018-07-17T14:20:08.181Z,99.90
2018-07-17T14:22:36.749Z,99.90
2018-07-17T14:25:05.480Z,99.90
2018-07-17T14:27:33.982Z,99.90
2018-07-17T14:30:02.557Z,99.90
2018-07-17T14:32:31.106Z,99.90
2018-07-17T14:34:59.657Z,99.90
2018-07-17T14:37:28.179Z,99.90
2018-07-17T14:39:56.696Z,99.90
2018-07-17T14:42:25.257Z,99.90
2018-07-17T14:44:53.742Z,99.90
2018-07-17T14:47:22.265Z,99.90
2018-07-17T14:49:51.017Z,99.90
2018-07-17T14:52:19.595Z,99.90
2018-07-17T14:57:16.372Z,99.90
2018-07-17T14:59:44.907Z,99.90
2018-07-17T15:02:13.521Z,99.90
2018-07-17T15:04:42.097Z,99.90
2018-07-17T15:07:10.660Z,99.90
2018-07-17T15:09:39.275Z,99.90
2018-07-17T15:12:07.852Z,99.90
2018-07-17T15:14:36.648Z,99.90
2018-07-17T15:17:05.467Z,99.90
2018-07-17T15:19:33.998Z,99.90
2018-07-17T15:22:02.676Z,99.90
2018-07-17T15:24:31.222Z,99.90
2018-07-17T15:26:59.778Z,99.90
2018-07-17T15:29:28.382Z,99.90
2018-07-17T15:31:57.025Z,99.90
2018-07-17T15:34:25.547Z,99.90
2018-07-17T15:36:54.110Z,99.90
2018-07-17T15:39:22.833Z,99.90
2018-07-17T15:41:55.130Z,99.90
2018-07-17T15:44:23.669Z,99.90
2018-07-17T15:46:52.229Z,99.90
2018-07-17T15:49:20.782Z,99.90
2018-07-17T15:51:49.315Z,99.90
2018-07-17T15:54:17.954Z,99.90
2018-07-17T15:56:46.488Z,99.90
2018-07-17T15:59:15.080Z,99.90
2018-07-17T16:01:43.630Z,99.90
2018-07-17T16:04:12.165Z,99.90
2018-07-17T16:06:40.776Z,99.90
2018-07-17T16:09:09.336Z,98.80
2018-07-17T16:11:37.917Z,97.80
2018-07-17T16:14:06.695Z,98.30
2018-07-17T16:16:35.580Z,96.20
2018-07-17T16:19:04.110Z,98.40
2018-07-17T16:21:32.677Z,95.80
2018-07-17T16:24:01.243Z,95.50
2018-07-17T16:26:29.839Z,94.80
2018-07-17T16:28:58.328Z,94.90
2018-07-17T16:31:26.857Z,95.00
2018-07-17T16:33:55.624Z,95.40
2018-07-17T16:36:24.200Z,96.30
2018-07-17T16:38:53.529Z,96.40
2018-07-17T16:41:22.039Z,97.10
2018-07-17T16:43:50.652Z,95.20
2018-07-17T16:46:19.211Z,93.80
2018-07-17T16:48:47.763Z,93.30
2018-07-17T16:51:16.401Z,92.00
2018-07-17T16:53:44.941Z,92.90
2018-07-17T16:56:13.461Z,93.40
2018-07-17T16:58:42.085Z,92.50
2018-07-17T17:01:10.727Z,92.40
2018-07-17T17:03:39.231Z,92.10
2018-07-17T17:06:07.857Z,92.50
2018-07-17T17:08:36.404Z,95.60
2018-07-17T17:11:04.946Z,94.10
2018-07-17T17:13:33.436Z,94.40
2018-07-17T17:16:01.984Z,95.60
2018-07-17T17:18:30.581Z,94.50
2018-07-17T17:20:59.149Z,94.70
2018-07-17T17:23:27.741Z,93.90
2018-07-17T17:25:56.268Z,93.80
2018-07-17T17:28:24.849Z,93.40
2018-07-17T17:30:53.383Z,92.60
2018-07-17T17:33:21.886Z,92.10
2018-07-17T17:35:50.413Z,92.30
2018-07-17T17:38:18.991Z,92.20
2018-07-17T17:40:47.550Z,93.30
2018-07-17T17:43:16.189Z,94.40
2018-07-17T17:45:44.729Z,93.10
2018-07-17T17:48:13.292Z,97.40
2018-07-17T17:50:41.817Z,99.90
2018-07-17T17:53:10.347Z,99.90
2018-07-17T17:55:38.888Z,99.90
2018-07-17T17:58:07.806Z,99.90
2018-07-17T18:00:36.380Z,99.90
2018-07-17T18:03:05.249Z,99.90
2018-07-17T18:05:33.785Z,99.90
2018-07-17T18:08:02.272Z,99.90
2018-07-17T18:10:30.929Z,99.90
2018-07-17T18:12:59.496Z,99.90
2018-07-17T18:15:28.063Z,99.90
2018-07-17T18:17:56.568Z,99.90
2018-07-17T18:20:25.080Z,99.90
2018-07-17T18:22:53.684Z,99.90
2018-07-17T18:25:22.300Z,99.90
2018-07-17T18:27:50.827Z,99.90
2018-07-17T18:30:19.385Z,99.90
2018-07-17T18:32:48.103Z,99.90
2018-07-17T18:35:16.611Z,99.90
2018-07-17T18:40:14.534Z,99.90
2018-07-17T18:42:43.073Z,99.90
2018-07-17T18:45:11.987Z,99.90
2018-07-17T18:47:40.597Z,99.90
2018-07-17T18:50:12.863Z,99.90
2018-07-17T18:52:37.668Z,99.90
2018-07-17T18:55:06.560Z,99.90
2018-07-17T18:57:35.087Z,99.90
2018-07-17T19:00:03.765Z,99.90
2018-07-17T19:02:32.439Z,99.90
2018-07-17T19:05:00.991Z,99.90
2018-07-17T19:07:29.740Z,99.90
2018-07-17T19:09:58.298Z,99.90
2018-07-17T19:12:26.939Z,99.90
2018-07-17T19:14:55.417Z,99.90
2018-07-17T19:17:24.013Z,99.90
2018-07-17T19:19:52.584Z,99.90
2018-07-17T19:22:21.253Z,99.90
2018-07-17T19:24:49.769Z,99.90
2018-07-17T19:27:18.390Z,99.90
2018-07-17T19:29:47.190Z,99.90
2018-07-17T19:32:15.715Z,99.90
2018-07-17T19:34:44.251Z,99.90
2018-07-17T19:37:12.789Z,99.90
2018-07-17T19:39:41.324Z,99.90
2018-07-17T19:42:09.850Z,99.90
2018-07-17T19:44:38.407Z,99.90
2018-07-17T19:47:06.984Z,99.90
2018-07-17T19:49:35.566Z,99.90
2018-07-17T19:52:04.928Z,99.90
2018-07-17T19:54:33.454Z,99.90
2018-07-17T19:57:01.986Z,99.90
2018-07-17T19:59:30.522Z,99.90
2018-07-17T20:01:59.039Z,99.90
2018-07-17T20:04:27.585Z,99.90
2018-07-17T20:06:56.195Z,99.90
2018-07-17T20:09:24.751Z,99.90
2018-07-17T20:11:53.292Z,99.90
2018-07-17T20:14:21.881Z,99.90
2018-07-17T20:16:50.417Z,99.90
2018-07-17T20:19:18.931Z,99.90
2018-07-17T20:21:47.492Z,99.90
2018-07-17T20:24:16.061Z,99.90
2018-07-17T20:26:44.649Z,99.90
2018-07-17T20:29:13.176Z,99.90
2018-07-17T20:31:41.704Z,99.90
2018-07-17T20:34:10.235Z,99.90
2018-07-17T20:36:38.769Z,99.90
2018-07-17T20:39:09.026Z,99.90
2018-07-17T20:41:37.512Z,99.90
2018-07-17T20:44:06.287Z,99.90
2018-07-17T20:46:35.028Z,99.90
2018-07-17T20:49:03.561Z,99.90
2018-07-17T20:51:32.068Z,99.90
2018-07-17T20:54:00.593Z,99.90
2018-07-17T20:56:29.209Z,99.90
2018-07-17T20:58:57.724Z,99.90
2018-07-17T21:01:26.295Z,99.90
2018-07-17T21:03:54.833Z,99.90
2018-07-17T21:06:23.388Z,99.90
2018-07-17T21:08:51.944Z,99.90
2018-07-17T21:11:20.483Z,99.90
2018-07-17T21:13:49.047Z,99.90
2018-07-17T21:16:17.588Z,99.90
2018-07-17T21:18:46.141Z,99.90
2018-07-17T21:21:14.685Z,99.90
2018-07-17T21:23:43.290Z,99.90
2018-07-17T21:26:11.776Z,99.90
2018-07-17T21:28:40.298Z,99.90
2018-07-17T21:31:08.814Z,99.90
2018-07-17T21:36:05.689Z,99.90
2018-07-17T21:38:34.354Z,99.90
2018-07-17T21:41:02.924Z,99.90
2018-07-17T21:43:31.494Z,99.90
2018-07-17T21:46:00.035Z,99.90
2018-07-17T21:48:39.795Z,99.90
2018-07-17T21:51:08.311Z,99.90
2018-07-17T21:53:36.823Z,99.90
2018-07-17T21:56:05.621Z,99.90
2018-07-17T21:58:34.147Z,99.90
2018-07-17T22:01:02.743Z,99.90
2018-07-17T22:03:31.240Z,99.90
2018-07-17T22:06:00.040Z,99.90
2018-07-17T22:10:56.883Z,99.90
2018-07-17T22:13:25.587Z,99.90
2018-07-17T22:15:54.194Z,99.90
2018-07-17T22:18:22.841Z,99.90
2018-07-17T22:23:19.621Z,99.90
2018-07-17T22:25:48.237Z,99.90
2018-07-17T22:28:16.814Z,99.90
2018-07-17T22:30:45.390Z,99.90
2018-07-17T22:33:13.980Z,99.90
2018-07-17T22:35:45.478Z,99.90
2018-07-17T22:38:14.321Z,99.90
2018-07-17T22:40:42.847Z,99.90
2018-07-17T22:43:11.450Z,99.90
2018-07-17T22:45:40.041Z,99.90
2018-07-17T22:48:08.637Z,99.90
2018-07-17T22:50:37.237Z,99.90
2018-07-17T22:53:05.920Z,99.90
2018-07-17T22:55:34.554Z,99.90
2018-07-17T22:58:03.224Z,99.90
2018-07-17T23:00:31.785Z,99.90
2018-07-17T23:03:00.357Z,99.90
2018-07-17T23:05:28.902Z,99.90
2018-07-17T23:07:57.469Z,99.90
2018-07-17T23:10:26.048Z,99.90
2018-07-17T23:12:54.608Z,99.90
2018-07-17T23:15:23.213Z,99.90
2018-07-17T23:17:51.804Z,99.90
2018-07-17T23:20:20.385Z,99.90
2018-07-17T23:22:56.807Z,99.90
2018-07-17T23:25:26.637Z,99.90
2018-07-17T23:27:56.032Z,99.90
2018-07-17T23:30:24.652Z,99.90
2018-07-17T23:32:53.499Z,99.90
2018-07-17T23:35:23.220Z,99.90
2018-07-17T23:37:52.221Z,99.90
2018-07-17T23:40:21.316Z,99.90
2018-07-17T23:42:49.893Z,99.90
2018-07-17T23:45:18.976Z,99.90
2018-07-17T23:47:48.292Z,99.90
2018-07-17T23:50:16.939Z,99.90
2018-07-17T23:52:45.562Z,99.90
2018-07-17T23:55:14.132Z,99.90
2018-07-17T23:57:42.737Z,99.90
